createdAt,value
2018-02-24T00:00:23.220Z,-1.80
2018-02-24T00:02:50.807Z,-1.80
2018-02-24T00:05:18.359Z,-1.80
2018-02-24T00:07:45.891Z,-1.80
2018-02-24T00:10:24.649Z,-1.80
2018-02-24T00:17:30.127Z,-1.90
2018-02-24T00:19:57.672Z,-2.00
2018-02-24T00:22:25.210Z,-2.00
2018-02-24T00:24:52.776Z,-2.00
2018-02-24T00:27:20.314Z,-1.90
2018-02-24T00:29:47.895Z,-2.00
2018-02-24T00:32:16.546Z,-1.90
2018-02-24T00:34:44.088Z,-1.80
2018-02-24T00:37:11.652Z,-1.70
2018-02-24T00:39:39.526Z,-1.80
2018-02-24T00:42:07.175Z,-1.80
2018-02-24T00:44:35.095Z,-1.80
2018-02-24T00:47:02.658Z,-1.90
2018-02-24T00:49:30.209Z,-1.90
2018-02-24T00:51:57.751Z,-1.80
2018-02-24T00:54:25.315Z,-1.80
2018-02-24T00:56:52.869Z,-1.80
2018-02-24T00:59:20.415Z,-1.90
2018-02-24T01:01:48.300Z,-1.90
2018-02-24T01:04:16.603Z,-2.00
2018-02-24T01:06:44.140Z,-2.00
2018-02-24T01:09:11.727Z,-2.10
2018-02-24T01:11:39.267Z,-2.10
2018-02-24T01:14:06.803Z,-2.10
2018-02-24T01:16:34.376Z,-2.10
2018-02-24T01:19:01.912Z,-2.10
2018-02-24T01:21:29.456Z,-2.20
2018-02-24T01:23:57.383Z,-2.20
2018-02-24T01:26:24.921Z,-2.20
2018-02-24T01:28:52.482Z,-2.20
2018-02-24T01:31:20.075Z,-2.20
2018-02-24T01:33:47.610Z,-2.20
2018-02-24T01:36:16.283Z,-2.20
2018-02-24T01:38:43.844Z,-2.20
2018-02-24T01:41:11.393Z,-2.20
2018-02-24T01:43:38.944Z,-2.20
2018-02-24T01:46:07.580Z,-2.30
2018-02-24T01:48:35.127Z,-2.30
2018-02-24T01:51:02.673Z,-2.30
2018-02-24T01:53:30.242Z,-2.30
2018-02-24T01:55:57.784Z,-2.30
2018-02-24T01:58:25.328Z,-2.30
2018-02-24T02:00:53.667Z,-2.30
2018-02-24T02:03:21.216Z,-2.30
2018-02-24T02:05:48.756Z,-2.30
2018-02-24T02:08:17.742Z,-2.30
2018-02-24T02:10:45.284Z,-2.40
2018-02-24T02:13:14.512Z,-2.40
2018-02-24T02:15:42.071Z,-2.40
2018-02-24T02:18:09.615Z,-2.40
2018-02-24T02:20:37.155Z,-2.40
2018-02-24T02:23:04.727Z,-2.40
2018-02-24T02:25:32.272Z,-2.50
2018-02-24T02:27:59.867Z,-2.50
2018-02-24T02:30:27.980Z,-2.50
2018-02-24T02:32:55.524Z,-2.50
2018-02-24T02:35:23.102Z,-2.60
2018-02-24T02:37:50.693Z,-2.60
2018-02-24T02:40:18.230Z,-2.60
2018-02-24T02:42:45.782Z,-2.70
2018-02-24T02:45:25.208Z,-2.60
2018-02-24T02:50:32.187Z,-2.70
2018-02-24T02:52:59.726Z,-2.80
2018-02-24T02:55:27.269Z,-2.80
2018-02-24T02:57:54.840Z,-2.90
2018-02-24T03:00:22.380Z,-2.90
2018-02-24T03:02:50.692Z,-2.80
2018-02-24T03:05:19.043Z,-2.80
2018-02-24T03:07:46.590Z,-2.90
2018-02-24T03:10:26.688Z,-2.80
2018-02-24T03:15:44.536Z,-2.90
2018-02-24T03:18:12.070Z,-2.90
2018-02-24T03:20:39.615Z,-3.00
2018-02-24T03:23:07.184Z,-3.00
2018-02-24T03:25:35.499Z,-3.00
2018-02-24T03:28:03.052Z,-2.90
2018-02-24T03:30:30.864Z,-3.00
2018-02-24T03:32:58.403Z,-2.90
2018-02-24T03:35:25.934Z,-2.90
2018-02-24T03:37:53.508Z,-3.00
2018-02-24T03:40:21.052Z,-3.00
2018-02-24T03:42:48.595Z,-2.90
2018-02-24T03:45:16.571Z,-2.90
2018-02-24T03:47:44.123Z,-2.90
2018-02-24T03:50:11.663Z,-2.90
2018-02-24T03:52:40.108Z,-2.90
2018-02-24T03:55:07.643Z,-3.00
2018-02-24T03:57:35.206Z,-3.00
2018-02-24T04:00:02.788Z,-3.00
2018-02-24T04:02:30.340Z,-3.00
2018-02-24T04:04:57.881Z,-2.90
2018-02-24T04:07:25.460Z,-2.90
2018-02-24T04:09:52.995Z,-2.90
2018-02-24T04:12:20.544Z,-2.90
2018-02-24T04:14:48.824Z,-2.90
2018-02-24T04:17:16.445Z,-2.90
2018-02-24T04:19:43.980Z,-3.00
2018-02-24T04:22:11.548Z,-3.00
2018-02-24T04:24:39.083Z,-3.00
2018-02-24T04:27:06.640Z,-3.10
2018-02-24T04:29:34.983Z,-3.00
2018-02-24T04:32:02.536Z,-3.00
2018-02-24T04:34:30.844Z,-3.10
2018-02-24T04:36:58.899Z,-3.10
2018-02-24T04:39:26.445Z,-3.10
2018-02-24T04:41:54.748Z,-3.10
2018-02-24T04:44:22.323Z,-3.10
2018-02-24T04:46:49.872Z,-3.10
2018-02-24T04:49:17.407Z,-3.10
2018-02-24T04:51:44.998Z,-3.10
2018-02-24T04:54:12.779Z,-3.10
2018-02-24T04:56:40.322Z,-3.20
2018-02-24T04:59:08.219Z,-3.20
2018-02-24T05:01:35.960Z,-3.20
2018-02-24T05:04:03.499Z,-3.20
2018-02-24T05:06:31.075Z,-3.20
2018-02-24T05:08:58.619Z,-3.20
2018-02-24T05:11:26.163Z,-3.20
2018-02-24T05:13:54.497Z,-3.20
2018-02-24T05:16:22.027Z,-3.20
2018-02-24T05:18:49.564Z,-3.20
2018-02-24T05:21:18.452Z,-3.30
2018-02-24T05:23:46.760Z,-3.30
2018-02-24T05:26:16.372Z,-3.40
2018-02-24T05:28:43.943Z,-3.40
2018-02-24T05:31:11.484Z,-3.40
2018-02-24T05:33:39.038Z,-3.40
2018-02-24T05:36:06.624Z,-3.40
2018-02-24T05:38:34.167Z,-3.40
2018-02-24T05:41:01.703Z,-3.40
2018-02-24T05:43:29.742Z,-3.40
2018-02-24T05:45:57.285Z,-3.40
2018-02-24T05:48:24.817Z,-3.40
2018-02-24T05:50:52.388Z,-3.40
2018-02-24T05:53:19.943Z,-3.30
2018-02-24T05:55:47.931Z,-3.30
2018-02-24T05:58:15.543Z,-3.30
2018-02-24T06:00:43.839Z,-3.30
2018-02-24T06:03:11.370Z,-3.30
2018-02-24T06:05:39.718Z,-3.30
2018-02-24T06:08:07.260Z,-3.40
2018-02-24T06:10:34.809Z,-3.40
2018-02-24T06:13:02.395Z,-3.40
2018-02-24T06:15:29.987Z,-3.50
2018-02-24T06:17:58.309Z,-3.60
2018-02-24T06:20:25.932Z,-3.60
2018-02-24T06:22:53.507Z,-3.70
2018-02-24T06:25:21.077Z,-3.70
2018-02-24T06:27:48.705Z,-3.70
2018-02-24T06:30:16.472Z,-3.80
2018-02-24T06:32:44.787Z,-3.80
2018-02-24T06:35:14.327Z,-3.90
2018-02-24T06:37:41.955Z,-3.90
2018-02-24T06:40:09.527Z,-3.80
2018-02-24T06:42:37.101Z,-3.80
2018-02-24T06:45:05.463Z,-3.60
2018-02-24T06:47:33.046Z,-3.60
2018-02-24T06:50:01.455Z,-3.60
2018-02-24T06:52:29.136Z,-3.60
2018-02-24T06:54:57.447Z,-3.50
2018-02-24T06:57:25.241Z,-3.50
2018-02-24T06:59:52.787Z,-3.40
2018-02-24T07:02:20.471Z,-3.50
2018-02-24T07:04:48.043Z,-3.40
2018-02-24T07:07:16.518Z,-3.30
2018-02-24T07:09:44.076Z,-3.30
2018-02-24T07:12:12.256Z,-3.40
2018-02-24T07:14:39.831Z,-3.30
2018-02-24T07:17:08.143Z,-3.30
2018-02-24T07:19:35.768Z,-3.30
2018-02-24T07:22:04.092Z,-3.20
2018-02-24T07:24:31.663Z,-3.20
2018-02-24T07:26:59.239Z,-3.20
2018-02-24T07:29:26.789Z,-3.30
2018-02-24T07:31:57.538Z,-3.40
2018-02-24T07:34:25.168Z,-3.30
2018-02-24T07:36:52.725Z,-3.20
2018-02-24T07:39:20.271Z,-3.20
2018-02-24T07:41:47.889Z,-3.40
2018-02-24T07:44:17.835Z,-3.40
2018-02-24T07:46:45.432Z,-3.50
2018-02-24T07:49:17.777Z,-3.40
2018-02-24T07:51:45.391Z,-3.40
2018-02-24T07:54:15.547Z,-3.40
2018-02-24T07:56:43.652Z,-3.50
2018-02-24T07:59:11.672Z,-3.40
2018-02-24T08:01:39.219Z,-3.10
2018-02-24T08:04:06.787Z,-2.60
2018-02-24T08:06:34.335Z,-2.20
2018-02-24T08:09:01.896Z,-1.70
2018-02-24T08:11:29.472Z,-0.60
2018-02-24T08:13:57.015Z,0.40
2018-02-24T08:16:25.333Z,2.40
2018-02-24T08:18:53.533Z,2.40
2018-02-24T08:21:21.184Z,2.70
2018-02-24T08:23:48.774Z,3.00
2018-02-24T08:26:16.453Z,3.40
2018-02-24T08:28:43.996Z,4.40
2018-02-24T08:31:12.332Z,5.50
2018-02-24T08:33:39.908Z,5.50
2018-02-24T08:36:07.463Z,5.30
2018-02-24T08:38:35.002Z,4.70
2018-02-24T08:41:02.653Z,4.80
2018-02-24T08:43:30.236Z,5.30
2018-02-24T08:45:57.781Z,5.90
2018-02-24T08:48:25.390Z,6.50
2018-02-24T08:50:52.944Z,6.30
2018-02-24T08:53:20.656Z,6.40
2018-02-24T08:55:48.232Z,5.80
2018-02-24T08:58:16.455Z,5.90
2018-02-24T09:00:44.548Z,5.80
2018-02-24T09:03:14.232Z,6.70
2018-02-24T09:05:41.862Z,6.60
2018-02-24T09:08:09.399Z,7.20
2018-02-24T09:10:36.973Z,7.30
2018-02-24T09:13:04.558Z,7.60
2018-02-24T09:15:32.104Z,8.40
2018-02-24T09:17:59.667Z,8.30
2018-02-24T09:20:27.249Z,7.30
2018-02-24T09:22:55.582Z,7.50
2018-02-24T09:25:23.476Z,7.50
2018-02-24T09:27:51.028Z,7.20
2018-02-24T09:30:18.635Z,6.70
2018-02-24T09:32:46.983Z,5.10
2018-02-24T09:35:16.677Z,5.20
2018-02-24T09:37:44.269Z,5.10
2018-02-24T09:40:11.832Z,5.30
2018-02-24T09:42:39.374Z,6.10
2018-02-24T09:45:06.954Z,7.10
2018-02-24T09:47:34.740Z,7.00
2018-02-24T09:50:02.423Z,7.00
2018-02-24T09:52:30.078Z,7.20
2018-02-24T09:54:57.688Z,7.20
2018-02-24T09:57:25.267Z,6.40
2018-02-24T09:59:52.825Z,5.60
2018-02-24T10:02:20.879Z,5.20
2018-02-24T10:04:48.432Z,5.20
2018-02-24T10:07:17.336Z,4.80
2018-02-24T10:09:45.416Z,4.80
2018-02-24T10:12:15.408Z,4.70
2018-02-24T10:14:42.967Z,4.60
2018-02-24T10:17:10.815Z,4.40
2018-02-24T10:19:38.524Z,4.60
2018-02-24T10:22:06.243Z,3.90
2018-02-24T10:24:34.024Z,3.70
2018-02-24T10:27:01.564Z,3.10
2018-02-24T10:29:29.113Z,2.50
2018-02-24T10:31:57.055Z,2.20
2018-02-24T10:34:24.597Z,1.90
2018-02-24T10:36:52.150Z,1.30
2018-02-24T10:39:19.792Z,1.10
2018-02-24T10:41:47.576Z,0.90
2018-02-24T10:44:17.255Z,0.60
2018-02-24T10:46:44.816Z,0.50
2018-02-24T10:49:13.900Z,0.20
2018-02-24T10:51:42.094Z,0.00
2018-02-24T10:54:09.880Z,0.00
2018-02-24T10:56:37.511Z,0.00
2018-02-24T10:59:05.964Z,-0.10
2018-02-24T11:01:33.707Z,-0.20
2018-02-24T11:04:02.372Z,-0.50
2018-02-24T11:06:29.923Z,-0.60
2018-02-24T11:08:57.548Z,-0.70
2018-02-24T11:11:25.212Z,-0.80
2018-02-24T11:13:52.712Z,-0.80
2018-02-24T11:16:20.464Z,-0.80
2018-02-24T11:18:48.031Z,-0.80
2018-02-24T11:21:17.205Z,-0.60
2018-02-24T11:23:44.897Z,-0.60
2018-02-24T11:26:12.492Z,-0.40
2018-02-24T11:28:40.812Z,-0.30
2018-02-24T11:31:08.416Z,-0.30
2018-02-24T11:33:36.753Z,-0.40
2018-02-24T11:36:05.115Z,-0.30
2018-02-24T11:38:33.224Z,-0.30
2018-02-24T11:41:00.789Z,-0.30
2018-02-24T11:43:28.341Z,-0.40
2018-02-24T11:45:55.921Z,-0.40
2018-02-24T11:48:23.505Z,-0.50
2018-02-24T11:50:51.047Z,-0.60
2018-02-24T11:53:18.669Z,-0.60
2018-02-24T11:55:46.269Z,-0.60
2018-02-24T11:58:16.348Z,-0.50
2018-02-24T12:00:44.248Z,-0.50
2018-02-24T12:03:11.867Z,-0.40
2018-02-24T12:05:40.457Z,-0.40
2018-02-24T12:08:08.049Z,-0.40
2018-02-24T12:10:35.613Z,-0.40
2018-02-24T12:13:03.169Z,-0.30
2018-02-24T12:15:30.765Z,-0.20
2018-02-24T12:17:58.352Z,-0.10
2018-02-24T12:20:25.907Z,0.00
2018-02-24T12:22:53.948Z,0.00
2018-02-24T12:25:22.279Z,-0.10
2018-02-24T12:27:49.832Z,-0.10
2018-02-24T12:30:17.433Z,-0.30
2018-02-24T12:32:45.043Z,-0.20
2018-02-24T12:35:12.621Z,-0.20
2018-02-24T12:37:40.215Z,-0.10
2018-02-24T12:40:08.867Z,-0.20
2018-02-24T12:42:36.442Z,-0.20
2018-02-24T12:45:04.252Z,-0.30
2018-02-24T12:47:31.805Z,-0.20
2018-02-24T12:49:59.359Z,-0.10
2018-02-24T12:52:27.695Z,-0.10
2018-02-24T12:54:55.240Z,-0.10
2018-02-24T12:57:22.792Z,-0.10
2018-02-24T12:59:50.368Z,-0.10
2018-02-24T13:02:17.912Z,-0.20
2018-02-24T13:04:45.464Z,-0.20
2018-02-24T13:07:16.444Z,-0.10
2018-02-24T13:09:44.033Z,-0.10
2018-02-24T13:12:12.350Z,-0.10
2018-02-24T13:14:39.944Z,-0.10
2018-02-24T13:17:07.493Z,-0.10
2018-02-24T13:19:35.052Z,0.00
2018-02-24T13:22:02.625Z,0.00
2018-02-24T13:24:30.172Z,0.10
2018-02-24T13:26:57.717Z,0.00
2018-02-24T13:29:25.844Z,-0.10
2018-02-24T13:31:54.162Z,0.10
2018-02-24T13:34:21.716Z,0.10
2018-02-24T13:36:49.292Z,0.10
2018-02-24T13:39:17.613Z,0.10
2018-02-24T13:41:45.156Z,0.10
2018-02-24T13:44:13.657Z,0.20
2018-02-24T13:46:41.205Z,0.20
2018-02-24T13:49:08.791Z,0.10
2018-02-24T13:51:37.348Z,0.00
2018-02-24T13:54:04.896Z,0.00
2018-02-24T13:56:32.466Z,0.00
2018-02-24T13:59:00.836Z,0.10
2018-02-24T14:01:28.544Z,0.10
2018-02-24T14:03:56.119Z,0.20
2018-02-24T14:06:23.712Z,0.30
2018-02-24T14:08:51.400Z,0.40
2018-02-24T14:11:18.986Z,0.40
2018-02-24T14:13:46.928Z,0.40
2018-02-24T14:16:16.286Z,0.40
2018-02-24T14:18:43.923Z,0.40
2018-02-24T14:21:11.483Z,0.40
2018-02-24T14:23:39.041Z,0.30
2018-02-24T14:26:06.599Z,0.40
2018-02-24T14:28:34.961Z,0.50
2018-02-24T14:31:02.507Z,0.50
2018-02-24T14:33:30.051Z,0.50
2018-02-24T14:35:58.429Z,0.40
2018-02-24T14:38:26.039Z,0.30
2018-02-24T14:40:53.684Z,0.30
2018-02-24T14:43:22.040Z,0.30
2018-02-24T14:45:49.684Z,0.30
2018-02-24T14:48:17.300Z,0.30
2018-02-24T14:50:45.720Z,0.30
2018-02-24T14:53:26.709Z,0.30
2018-02-24T14:58:34.448Z,0.20
2018-02-24T15:01:01.984Z,0.20
2018-02-24T15:03:29.532Z,0.10
2018-02-24T15:05:57.153Z,0.10
2018-02-24T15:08:25.459Z,0.00
2018-02-24T15:10:53.526Z,0.00
2018-02-24T15:13:21.111Z,-0.10
2018-02-24T15:15:48.658Z,0.00
2018-02-24T15:18:16.599Z,0.00
2018-02-24T15:20:44.244Z,-0.10
2018-02-24T15:23:11.811Z,-0.10
2018-02-24T15:25:40.132Z,-0.10
2018-02-24T15:28:08.499Z,-0.20
2018-02-24T15:30:36.050Z,-0.20
2018-02-24T15:33:03.618Z,-0.20
2018-02-24T15:35:31.188Z,-0.20
2018-02-24T15:37:58.840Z,-0.20
2018-02-24T15:40:26.521Z,-0.30
2018-02-24T15:42:54.356Z,-0.30
2018-02-24T15:45:21.914Z,-0.30
2018-02-24T15:47:49.539Z,-0.30
2018-02-24T15:50:17.133Z,-0.30
2018-02-24T15:52:44.827Z,-0.30
2018-02-24T15:55:12.392Z,-0.30
2018-02-24T15:57:39.972Z,-0.30
2018-02-24T16:00:07.519Z,-0.30
2018-02-24T16:02:35.088Z,-0.30
2018-02-24T16:05:03.165Z,-0.40
2018-02-24T16:07:30.707Z,-0.40
2018-02-24T16:09:58.248Z,-0.40
2018-02-24T16:12:26.044Z,-0.40
2018-02-24T16:14:53.596Z,-0.50
2018-02-24T16:17:21.966Z,-0.60
2018-02-24T16:19:49.599Z,-0.60
2018-02-24T16:22:17.796Z,-0.60
2018-02-24T16:24:45.342Z,-0.70
2018-02-24T16:27:15.435Z,-0.80
2018-02-24T16:29:42.981Z,-0.70
2018-02-24T16:32:11.302Z,-0.80
2018-02-24T16:34:38.869Z,-0.80
2018-02-24T16:37:06.424Z,-0.90
2018-02-24T16:39:33.996Z,-1.00
2018-02-24T16:42:01.569Z,-1.10
2018-02-24T16:44:29.112Z,-1.10
2018-02-24T16:46:56.703Z,-1.20
2018-02-24T16:49:24.484Z,-1.20
2018-02-24T16:51:52.795Z,-1.40
2018-02-24T16:54:20.337Z,-1.40
2018-02-24T16:56:48.676Z,-1.50
2018-02-24T16:59:17.230Z,-1.60
2018-02-24T17:01:45.125Z,-1.60
2018-02-24T17:04:13.504Z,-1.60
2018-02-24T17:06:41.643Z,-1.60
2018-02-24T17:09:09.268Z,-1.70
2018-02-24T17:11:36.871Z,-1.70
2018-02-24T17:14:05.132Z,-1.70
2018-02-24T17:16:32.675Z,-1.80
2018-02-24T17:19:01.008Z,-1.80
2018-02-24T17:21:28.553Z,-1.80
2018-02-24T17:23:56.148Z,-1.90
2018-02-24T17:26:23.768Z,-1.90
2018-02-24T17:28:51.351Z,-2.00
2018-02-24T17:31:18.909Z,-2.00
2018-02-24T17:33:46.743Z,-2.00
2018-02-24T17:36:16.362Z,-2.10
2018-02-24T17:38:44.175Z,-2.10
2018-02-24T17:41:11.789Z,-2.20
2018-02-24T17:43:39.327Z,-2.20
2018-02-24T17:46:06.875Z,-2.30
2018-02-24T17:48:34.476Z,-2.30
2018-02-24T17:51:02.033Z,-2.40
2018-02-24T17:53:29.580Z,-2.40
2018-02-24T17:55:57.216Z,-2.50
2018-02-24T17:58:25.556Z,-2.50
2018-02-24T18:00:55.903Z,-2.50
2018-02-24T18:03:23.748Z,-2.50
2018-02-24T18:05:51.308Z,-2.60
2018-02-24T18:08:18.861Z,-2.60
2018-02-24T18:10:46.440Z,-2.70
2018-02-24T18:13:25.426Z,-2.60
2018-02-24T18:20:32.077Z,-2.70
2018-02-24T18:22:59.714Z,-2.80
2018-02-24T18:25:27.288Z,-2.80
2018-02-24T18:27:54.935Z,-2.90
2018-02-24T18:30:22.492Z,-2.90
2018-02-24T18:32:50.033Z,-2.90
2018-02-24T18:35:17.729Z,-3.00
2018-02-24T18:37:45.348Z,-3.10
2018-02-24T18:40:15.548Z,-3.20
2018-02-24T18:42:43.924Z,-3.20
2018-02-24T18:45:11.524Z,-3.20
2018-02-24T18:47:39.116Z,-3.20
2018-02-24T18:50:06.707Z,-3.20
2018-02-24T18:52:35.062Z,-3.30
2018-02-24T18:55:02.823Z,-3.40
2018-02-24T18:57:30.411Z,-3.40
2018-02-24T18:59:59.830Z,-3.40
2018-02-24T19:02:28.148Z,-3.50
2018-02-24T19:04:55.939Z,-3.50
2018-02-24T19:07:23.527Z,-3.50
2018-02-24T19:09:51.100Z,-3.60
2018-02-24T19:12:18.691Z,-3.60
2018-02-24T19:14:47.353Z,-3.60
2018-02-24T19:17:16.357Z,-3.60
2018-02-24T19:19:44.022Z,-3.70
2018-02-24T19:22:12.068Z,-3.70
2018-02-24T19:24:39.616Z,-3.80
2018-02-24T19:27:08.580Z,-3.80
2018-02-24T19:29:36.132Z,-3.80
2018-02-24T19:32:03.683Z,-3.80
2018-02-24T19:34:31.512Z,-3.80
2018-02-24T19:36:59.164Z,-3.80
2018-02-24T19:39:26.708Z,-3.80
2018-02-24T19:41:55.053Z,-3.90
2018-02-24T19:44:23.368Z,-3.90
2018-02-24T19:46:50.920Z,-3.90
2018-02-24T19:49:19.616Z,-3.80
2018-02-24T19:51:48.557Z,-3.90
2018-02-24T19:54:17.232Z,-3.90
2018-02-24T19:56:44.823Z,-3.90
2018-02-24T19:59:12.370Z,-4.00
2018-02-24T20:01:39.933Z,-4.00
2018-02-24T20:04:07.540Z,-3.90
2018-02-24T20:06:35.121Z,-4.00
2018-02-24T20:09:02.663Z,-4.10
2018-02-24T20:11:31.056Z,-4.10
2018-02-24T20:13:58.616Z,-4.10
2018-02-24T20:16:26.189Z,-4.10
2018-02-24T20:18:53.783Z,-4.10
2018-02-24T20:21:21.368Z,-4.20
2018-02-24T20:23:49.470Z,-4.20
2018-02-24T20:26:17.087Z,-4.20
2018-02-24T20:28:44.653Z,-4.30
2018-02-24T20:31:12.196Z,-4.30
2018-02-24T20:33:40.263Z,-4.40
2018-02-24T20:36:07.819Z,-4.30
2018-02-24T20:38:35.434Z,-4.40
2018-02-24T20:41:03.011Z,-4.40
2018-02-24T20:43:30.584Z,-4.40
2018-02-24T20:45:58.134Z,-4.40
2018-02-24T20:48:25.712Z,-4.40
2018-02-24T20:50:54.569Z,-4.40
2018-02-24T20:53:22.117Z,-4.40
2018-02-24T20:55:50.620Z,-4.50
2018-02-24T20:58:18.168Z,-4.50
2018-02-24T21:00:46.539Z,-4.60
2018-02-24T21:03:25.962Z,-4.60
2018-02-24T21:09:16.263Z,-4.70
2018-02-24T21:11:43.812Z,-4.70
2018-02-24T21:14:12.187Z,-4.80
2018-02-24T21:16:39.843Z,-4.80
2018-02-24T21:19:07.477Z,-4.80
2018-02-24T21:21:35.045Z,-4.80
2018-02-24T21:24:03.474Z,-4.80
2018-02-24T21:26:31.716Z,-4.80
2018-02-24T21:28:59.273Z,-4.80
2018-02-24T21:31:26.849Z,-4.80
2018-02-24T21:33:54.400Z,-4.80
2018-02-24T21:36:21.950Z,-4.90
2018-02-24T21:38:49.582Z,-4.90
2018-02-24T21:41:17.132Z,-4.90
2018-02-24T21:43:44.673Z,-5.00
2018-02-24T21:46:12.248Z,-5.00
2018-02-24T21:48:39.816Z,-5.00
2018-02-24T21:51:07.355Z,-5.00
2018-02-24T21:53:35.723Z,-5.10
2018-02-24T21:56:03.273Z,-5.10
2018-02-24T21:58:30.812Z,-5.20
2018-02-24T22:00:58.837Z,-5.20
2018-02-24T22:03:27.145Z,-5.20
2018-02-24T22:05:54.704Z,-5.20
2018-02-24T22:08:22.275Z,-5.20
2018-02-24T22:10:50.142Z,-5.30
2018-02-24T22:13:17.688Z,-5.30
2018-02-24T22:15:45.681Z,-5.40
2018-02-24T22:18:15.371Z,-5.60
2018-02-24T22:20:42.932Z,-5.60
2018-02-24T22:23:10.565Z,-5.60
2018-02-24T22:25:39.115Z,-5.70
2018-02-24T22:28:06.667Z,-5.80
2018-02-24T22:30:34.260Z,-5.80
2018-02-24T22:33:01.822Z,-5.80
2018-02-24T22:35:30.136Z,-5.90
2018-02-24T22:37:57.700Z,-5.90
2018-02-24T22:40:25.231Z,-5.90
2018-02-24T22:42:53.148Z,-6.00
2018-02-24T22:45:21.557Z,-6.00
2018-02-24T22:47:54.640Z,-6.00
2018-02-24T22:50:22.220Z,-6.10
2018-02-24T22:52:49.757Z,-6.10
2018-02-24T22:55:17.295Z,-6.20
2018-02-24T22:57:44.868Z,-6.30
2018-02-24T23:00:12.403Z,-6.30
2018-02-24T23:02:39.940Z,-6.30
2018-02-24T23:05:07.947Z,-6.40
2018-02-24T23:07:35.484Z,-6.40
2018-02-24T23:10:03.019Z,-6.50
2018-02-24T23:12:30.583Z,-6.50
2018-02-24T23:14:58.121Z,-6.50
2018-02-24T23:17:26.423Z,-6.60
2018-02-24T23:19:53.981Z,-6.60
2018-02-24T23:22:21.520Z,-6.60
2018-02-24T23:24:49.072Z,-6.70
2018-02-24T23:27:17.189Z,-6.70
2018-02-24T23:29:44.731Z,-6.70
2018-02-24T23:32:12.284Z,-6.70
2018-02-24T23:34:39.868Z,-6.70
2018-02-24T23:37:07.403Z,-6.80
2018-02-24T23:39:35.712Z,-6.70
2018-02-24T23:42:03.288Z,-6.80
2018-02-24T23:44:30.831Z,-6.80
2018-02-24T23:46:58.384Z,-6.80
2018-02-24T23:49:26.479Z,-6.80
2018-02-24T23:51:54.011Z,-6.90
2018-02-24T23:54:21.564Z,-6.80
2018-02-24T23:56:49.141Z,-6.90
2018-02-24T23:59:16.691Z,-6.90
